createdAt,value
2019-05-23T00:02:32.341Z,68.30
2019-05-23T00:05:21.185Z,66.54
2019-05-23T00:08:01.752Z,65.95
2019-05-23T00:10:44.555Z,66.32
2019-05-23T00:13:39.968Z,64.99
2019-05-23T00:16:21.578Z,64.79
2019-05-23T00:18:59.670Z,65.95
2019-05-23T00:21:40.107Z,65.97
2019-05-23T00:24:18.773Z,65.80
2019-05-23T00:26:58.846Z,65.44
2019-05-23T00:29:40.338Z,65.29
2019-05-23T00:32:29.524Z,66.27
2019-05-23T00:35:07.500Z,66.05
2019-05-23T00:37:47.595Z,64.60
2019-05-23T00:40:26.065Z,64.62
2019-05-23T00:43:06.394Z,64.17
2019-05-23T00:45:44.143Z,63.27
2019-05-23T00:48:22.459Z,63.52
2019-05-23T00:51:04.443Z,63.59
2019-05-23T00:53:41.569Z,61.64
2019-05-23T00:56:21.422Z,61.19
2019-05-23T00:58:59.244Z,61.71
2019-05-23T01:01:38.020Z,60.49
2019-05-23T01:04:17.907Z,59.83
2019-05-23T01:06:57.206Z,59.74
2019-05-23T01:09:34.881Z,62.25
2019-05-23T01:12:13.739Z,60.86
2019-05-23T01:14:52.109Z,61.10
2019-05-23T01:17:31.512Z,61.10
2019-05-23T01:20:11.209Z,59.54
2019-05-23T01:22:49.860Z,58.56
2019-05-23T01:25:28.471Z,57.95
2019-05-23T01:28:09.086Z,59.55
2019-05-23T01:30:49.802Z,60.24
2019-05-23T01:33:27.860Z,60.56
2019-05-23T01:36:06.663Z,58.68
2019-05-23T01:38:44.946Z,58.17
2019-05-23T01:41:23.655Z,58.87
2019-05-23T01:44:01.312Z,58.68
2019-05-23T01:46:41.858Z,57.32
2019-05-23T01:49:19.756Z,57.58
2019-05-23T01:51:58.527Z,57.72
2019-05-23T01:54:36.790Z,56.35
2019-05-23T01:57:15.730Z,57.96
2019-05-23T02:00:09.133Z,56.46
2019-05-23T02:02:39.492Z,56.33
2019-05-23T02:05:19.101Z,57.33
2019-05-23T02:07:58.429Z,55.77
2019-05-23T02:10:37.376Z,56.24
2019-05-23T02:13:15.425Z,56.44
2019-05-23T02:15:54.604Z,57.61
2019-05-23T02:18:33.339Z,57.62
2019-05-23T02:21:12.115Z,57.47
2019-05-23T02:23:49.700Z,57.77
2019-05-23T02:26:27.709Z,58.42
2019-05-23T02:29:06.353Z,58.22
2019-05-23T02:31:46.295Z,58.83
2019-05-23T02:34:23.870Z,59.44
2019-05-23T02:37:02.617Z,58.49
2019-05-23T02:39:59.461Z,57.98
2019-05-23T02:42:44.702Z,57.80
2019-05-23T02:45:25.965Z,57.31
2019-05-23T02:48:05.158Z,57.45
2019-05-23T02:50:53.913Z,56.35
2019-05-23T02:53:32.866Z,57.42
2019-05-23T02:56:12.904Z,58.78
2019-05-23T02:59:06.237Z,58.75
2019-05-23T03:02:16.023Z,58.54
2019-05-23T03:04:56.117Z,58.10
2019-05-23T03:07:36.350Z,59.38
2019-05-23T03:10:14.654Z,58.44
2019-05-23T03:12:54.383Z,57.74
2019-05-23T03:15:34.467Z,59.13
2019-05-23T03:18:11.652Z,60.15
2019-05-23T03:20:51.502Z,59.57
2019-05-23T03:23:29.888Z,57.98
2019-05-23T03:26:41.714Z,57.83
2019-05-23T03:29:20.160Z,57.49
2019-05-23T03:32:05.120Z,59.36
2019-05-23T03:34:46.683Z,58.53
2019-05-23T03:37:25.195Z,57.63
2019-05-23T03:40:03.093Z,57.35
2019-05-23T03:42:41.599Z,57.17
2019-05-23T03:45:25.261Z,55.55
2019-05-23T03:48:02.597Z,56.55
2019-05-23T03:50:40.550Z,54.47
2019-05-23T03:53:18.088Z,54.99
2019-05-23T03:55:56.141Z,55.05
2019-05-23T03:58:37.045Z,56.28
2019-05-23T04:01:16.377Z,56.92
2019-05-23T04:03:55.716Z,56.68
2019-05-23T04:06:35.361Z,56.14
2019-05-23T04:09:14.382Z,55.07
2019-05-23T04:11:51.855Z,57.53
2019-05-23T04:14:29.621Z,58.52
2019-05-23T04:17:11.736Z,58.06
2019-05-23T04:19:49.296Z,58.34
2019-05-23T04:22:27.153Z,59.04
2019-05-23T04:25:04.375Z,59.99
2019-05-23T04:27:42.796Z,59.64
2019-05-23T04:30:21.066Z,58.60
2019-05-23T04:32:59.109Z,57.11
2019-05-23T04:35:36.572Z,54.90
2019-05-23T04:38:17.455Z,55.40
2019-05-23T04:40:54.238Z,55.26
2019-05-23T04:43:31.609Z,56.70
2019-05-23T04:46:09.527Z,56.54
2019-05-23T04:48:48.030Z,57.26
2019-05-23T04:51:27.353Z,57.64
2019-05-23T04:54:06.483Z,56.03
2019-05-23T04:56:44.454Z,54.42
2019-05-23T04:59:23.214Z,53.42
2019-05-23T05:02:00.777Z,54.70
2019-05-23T05:04:38.739Z,53.27
2019-05-23T05:07:16.729Z,52.65
2019-05-23T05:09:55.968Z,53.96
2019-05-23T05:12:34.988Z,54.31
2019-05-23T05:15:12.775Z,53.36
2019-05-23T05:17:50.020Z,52.55
2019-05-23T05:20:27.773Z,54.37
2019-05-23T05:23:05.061Z,54.51
2019-05-23T05:25:43.355Z,56.02
2019-05-23T05:28:20.763Z,55.20
2019-05-23T05:30:59.152Z,54.69
2019-05-23T05:33:36.813Z,54.20
2019-05-23T05:36:14.089Z,54.62
2019-05-23T05:38:51.357Z,56.29
2019-05-23T05:41:32.948Z,57.18
2019-05-23T05:44:12.031Z,56.54
2019-05-23T05:46:49.648Z,54.95
2019-05-23T05:49:27.814Z,55.76
2019-05-23T05:52:06.588Z,55.73
2019-05-23T05:54:44.087Z,55.03
2019-05-23T05:57:21.862Z,54.66
2019-05-23T06:00:00.104Z,55.05
2019-05-23T06:02:39.066Z,54.95
2019-05-23T06:05:25.529Z,56.06
2019-05-23T06:08:04.000Z,57.56
2019-05-23T06:10:41.923Z,56.36
2019-05-23T06:13:20.713Z,56.81
2019-05-23T06:15:58.867Z,56.25
2019-05-23T06:18:36.312Z,55.49
2019-05-23T06:21:15.707Z,54.46
2019-05-23T06:23:53.660Z,55.00
2019-05-23T06:26:31.130Z,52.05
2019-05-23T06:29:09.786Z,52.64
2019-05-23T06:31:47.583Z,52.25
2019-05-23T06:34:27.218Z,52.45
2019-05-23T06:37:05.389Z,52.46
2019-05-23T06:39:43.607Z,51.55
2019-05-23T06:42:21.400Z,50.77
2019-05-23T06:45:00.054Z,51.29
2019-05-23T06:47:38.471Z,53.84
2019-05-23T06:50:19.770Z,53.78
2019-05-23T06:52:57.118Z,54.55
2019-05-23T06:55:35.705Z,54.55
2019-05-23T06:58:13.651Z,52.90
2019-05-23T07:00:51.304Z,52.33
2019-05-23T07:03:41.602Z,53.55
2019-05-23T07:06:08.559Z,52.13
2019-05-23T07:08:46.771Z,54.19
2019-05-23T07:11:25.565Z,53.50
2019-05-23T07:14:02.905Z,52.14
2019-05-23T07:16:40.755Z,52.40
2019-05-23T07:19:19.401Z,53.86
2019-05-23T07:21:57.105Z,53.98
2019-05-23T07:24:34.918Z,53.47
2019-05-23T07:27:13.304Z,53.07
2019-05-23T07:29:50.598Z,53.26
2019-05-23T07:32:28.444Z,53.28
2019-05-23T07:35:05.220Z,52.82
2019-05-23T07:37:43.252Z,53.26
2019-05-23T07:40:21.006Z,53.69
2019-05-23T07:42:59.303Z,52.22
2019-05-23T07:45:42.359Z,53.10
2019-05-23T07:48:20.403Z,52.60
2019-05-23T07:50:58.792Z,53.38
2019-05-23T07:53:54.381Z,52.42
2019-05-23T07:56:34.279Z,53.97
2019-05-23T07:59:14.738Z,52.74
2019-05-23T08:01:57.587Z,53.30
2019-05-23T08:04:35.373Z,53.58
2019-05-23T08:07:14.155Z,54.57
2019-05-23T08:09:53.068Z,54.54
2019-05-23T08:12:30.274Z,55.62
2019-05-23T08:15:08.634Z,56.43
2019-05-23T08:17:46.048Z,56.52
2019-05-23T08:20:28.503Z,58.05
2019-05-23T08:23:07.043Z,58.42
2019-05-23T08:25:44.329Z,58.82
2019-05-23T08:28:22.287Z,59.74
2019-05-23T08:31:01.067Z,60.31
2019-05-23T08:33:39.497Z,60.63
2019-05-23T08:36:16.678Z,59.75
2019-05-23T08:38:54.408Z,58.92
2019-05-23T08:41:34.527Z,61.37
2019-05-23T08:44:11.974Z,59.52
2019-05-23T08:46:49.477Z,60.63
2019-05-23T08:49:27.225Z,60.28
2019-05-23T08:52:05.842Z,61.65
2019-05-23T08:54:45.082Z,61.83
2019-05-23T08:57:23.946Z,60.20
2019-05-23T09:00:01.205Z,59.54
2019-05-23T09:02:41.541Z,59.22
2019-05-23T09:05:20.135Z,60.56
2019-05-23T09:07:58.129Z,60.71
2019-05-23T09:10:37.286Z,61.25
2019-05-23T09:13:15.477Z,60.65
2019-05-23T09:15:54.028Z,61.14
2019-05-23T09:18:32.107Z,60.63
2019-05-23T09:21:09.948Z,60.42
2019-05-23T09:23:48.556Z,62.20
2019-05-23T09:26:28.272Z,62.41
2019-05-23T09:29:07.680Z,61.63
2019-05-23T09:31:45.162Z,62.88
2019-05-23T09:34:40.331Z,61.66
2019-05-23T09:37:19.429Z,62.49
2019-05-23T09:39:57.007Z,62.87
2019-05-23T09:42:34.185Z,62.47
2019-05-23T09:45:12.389Z,61.85
2019-05-23T09:47:51.217Z,62.87
2019-05-23T09:50:29.224Z,61.37
2019-05-23T09:53:06.753Z,61.29
2019-05-23T09:55:45.604Z,61.08
2019-05-23T09:58:23.662Z,60.94
2019-05-23T10:01:01.481Z,61.55
2019-05-23T10:03:39.184Z,61.72
2019-05-23T10:06:17.166Z,63.05
2019-05-23T10:08:56.216Z,66.24
2019-05-23T10:11:34.380Z,72.28
2019-05-23T10:14:15.578Z,76.41
2019-05-23T10:16:53.341Z,78.17
2019-05-23T10:19:30.562Z,77.76
2019-05-23T10:22:08.343Z,78.56
2019-05-23T10:24:46.311Z,78.30
2019-05-23T10:27:24.705Z,77.81
2019-05-23T10:30:03.204Z,76.99
2019-05-23T10:32:40.723Z,75.54
2019-05-23T10:35:18.251Z,74.72
2019-05-23T10:37:56.884Z,74.10
2019-05-23T10:40:34.458Z,74.43
2019-05-23T10:43:12.279Z,73.79
2019-05-23T10:45:50.360Z,73.76
2019-05-23T10:48:29.423Z,73.00
2019-05-23T10:51:07.391Z,73.89
2019-05-23T10:53:45.123Z,72.52
2019-05-23T10:56:22.605Z,70.99
2019-05-23T10:59:00.215Z,71.20
2019-05-23T11:01:38.518Z,71.36
2019-05-23T11:04:16.348Z,70.04
2019-05-23T11:06:53.999Z,71.15
2019-05-23T11:09:37.738Z,71.32
2019-05-23T11:12:11.774Z,69.49
2019-05-23T11:14:49.211Z,70.03
2019-05-23T11:17:26.709Z,69.76
2019-05-23T11:20:04.661Z,69.83
2019-05-23T11:22:42.191Z,70.16
2019-05-23T11:25:20.021Z,71.91
2019-05-23T11:27:57.365Z,72.28
2019-05-23T11:30:45.480Z,72.00
2019-05-23T11:33:24.743Z,71.62
2019-05-23T11:36:02.525Z,73.05
2019-05-23T11:38:40.218Z,72.63
2019-05-23T11:41:18.781Z,72.79
2019-05-23T11:43:55.726Z,72.81
2019-05-23T11:46:36.659Z,72.88
2019-05-23T11:49:14.453Z,73.24
2019-05-23T11:51:53.560Z,73.47
2019-05-23T11:54:31.180Z,73.19
2019-05-23T11:57:10.986Z,74.06
2019-05-23T11:59:48.519Z,73.58
2019-05-23T12:02:33.645Z,72.93
2019-05-23T12:05:16.608Z,72.05
2019-05-23T12:07:55.403Z,71.18
2019-05-23T12:10:35.691Z,70.49
2019-05-23T12:13:14.663Z,70.51
2019-05-23T12:15:53.209Z,69.92
2019-05-23T12:18:30.731Z,69.18
2019-05-23T12:21:08.136Z,69.31
2019-05-23T12:23:47.213Z,69.65
2019-05-23T12:26:24.912Z,68.47
2019-05-23T12:29:02.326Z,68.44
2019-05-23T12:31:39.678Z,66.95
2019-05-23T12:34:18.461Z,66.67
2019-05-23T12:37:16.845Z,66.84
2019-05-23T12:39:36.630Z,67.74
2019-05-23T12:42:13.647Z,67.43
2019-05-23T12:44:51.886Z,66.69
2019-05-23T12:47:47.465Z,67.93
2019-05-23T12:50:28.925Z,67.51
2019-05-23T12:53:06.390Z,68.24
2019-05-23T12:55:44.602Z,69.01
2019-05-23T12:58:22.589Z,68.92
2019-05-23T13:01:03.075Z,69.38
2019-05-23T13:03:40.717Z,68.16
2019-05-23T13:06:19.589Z,68.68
2019-05-23T13:08:58.669Z,68.08
2019-05-23T13:11:37.422Z,67.13
2019-05-23T13:14:16.466Z,66.86
2019-05-23T13:17:00.409Z,67.56
2019-05-23T13:19:35.529Z,67.07
2019-05-23T13:22:12.957Z,67.11
2019-05-23T13:24:53.134Z,66.18
2019-05-23T13:27:33.562Z,66.11
2019-05-23T13:30:11.112Z,66.75
2019-05-23T13:32:49.717Z,66.85
2019-05-23T13:35:27.950Z,66.32
2019-05-23T13:38:05.175Z,66.89
2019-05-23T13:40:43.667Z,68.14
2019-05-23T13:43:24.595Z,67.89
2019-05-23T13:46:02.098Z,67.26
2019-05-23T13:48:42.508Z,67.92
2019-05-23T13:51:19.683Z,69.46
2019-05-23T13:53:57.235Z,68.84
2019-05-23T13:56:34.473Z,68.70
2019-05-23T13:59:12.683Z,68.99
2019-05-23T14:01:50.250Z,68.49
2019-05-23T14:04:29.663Z,68.63
2019-05-23T14:07:09.812Z,67.21
2019-05-23T14:09:48.129Z,67.04
2019-05-23T14:12:28.431Z,67.46
2019-05-23T14:15:07.848Z,68.85
2019-05-23T14:17:46.214Z,69.79
2019-05-23T14:20:25.761Z,68.80
2019-05-23T14:23:09.038Z,68.34
2019-05-23T14:25:50.910Z,68.96
2019-05-23T14:28:29.237Z,69.33
2019-05-23T14:31:25.306Z,67.51
2019-05-23T14:34:07.904Z,67.24
2019-05-23T14:36:55.223Z,69.43
2019-05-23T14:39:50.525Z,71.04
2019-05-23T14:42:53.182Z,70.51
2019-05-23T14:45:46.837Z,69.71
2019-05-23T14:48:43.481Z,69.19
2019-05-23T14:51:38.985Z,70.05
2019-05-23T14:54:24.539Z,70.08
2019-05-23T14:57:02.147Z,69.62
2019-05-23T14:59:40.271Z,68.54
2019-05-23T15:02:20.945Z,68.59
2019-05-23T15:04:59.803Z,68.49
2019-05-23T15:07:37.876Z,68.63
2019-05-23T15:10:16.171Z,68.42
2019-05-23T15:12:55.009Z,67.02
2019-05-23T15:15:33.824Z,66.91
2019-05-23T15:18:11.368Z,67.86
2019-05-23T15:20:49.691Z,67.13
2019-05-23T15:23:27.487Z,66.26
2019-05-23T15:26:21.543Z,67.19
2019-05-23T15:28:46.223Z,67.84
2019-05-23T15:31:24.207Z,67.43
2019-05-23T15:34:01.723Z,68.05
2019-05-23T15:36:40.315Z,66.80
2019-05-23T15:39:19.498Z,67.07
2019-05-23T15:41:56.750Z,68.84
2019-05-23T15:44:35.749Z,68.07
2019-05-23T15:47:13.520Z,68.32
2019-05-23T15:49:51.781Z,68.45
2019-05-23T15:52:54.025Z,69.82
2019-05-23T15:55:55.562Z,70.57
2019-05-23T15:58:49.921Z,70.00
2019-05-23T16:01:34.259Z,69.78
2019-05-23T16:04:14.142Z,70.57
2019-05-23T16:06:51.964Z,70.85
2019-05-23T16:09:31.351Z,70.73
2019-05-23T16:12:10.191Z,69.77
2019-05-23T16:14:49.421Z,69.97
2019-05-23T16:17:27.662Z,71.11
2019-05-23T16:20:05.830Z,69.84
2019-05-23T16:22:43.747Z,68.97
2019-05-23T16:25:21.255Z,69.15
2019-05-23T16:27:58.912Z,69.64
2019-05-23T16:30:37.623Z,70.80
2019-05-23T16:33:14.841Z,69.09
2019-05-23T16:35:52.284Z,68.25
2019-05-23T16:38:29.970Z,68.80
2019-05-23T16:41:11.307Z,69.28
2019-05-23T16:43:47.820Z,69.53
2019-05-23T16:46:27.228Z,69.52
2019-05-23T16:49:04.782Z,69.92
2019-05-23T16:51:42.407Z,70.23
2019-05-23T16:54:21.013Z,70.39
2019-05-23T16:57:16.809Z,69.93
2019-05-23T17:00:12.430Z,69.66
2019-05-23T17:03:15.301Z,69.94
2019-05-23T17:06:07.439Z,70.07
2019-05-23T17:09:03.033Z,71.13
2019-05-23T17:12:09.037Z,71.28
2019-05-23T17:15:14.499Z,70.88
2019-05-23T17:18:05.646Z,70.89
2019-05-23T17:20:58.839Z,71.42
2019-05-23T17:24:03.860Z,71.16
2019-05-23T17:26:59.891Z,70.87
2019-05-23T17:29:51.959Z,71.70
2019-05-23T17:32:36.236Z,71.95
2019-05-23T17:35:14.707Z,71.69
2019-05-23T17:37:52.763Z,71.86
2019-05-23T17:40:32.158Z,71.83
2019-05-23T17:43:11.289Z,71.88
2019-05-23T17:45:48.923Z,70.57
2019-05-23T17:48:27.905Z,70.00
2019-05-23T17:51:05.016Z,70.33
2019-05-23T17:53:43.047Z,70.06
2019-05-23T17:56:20.339Z,70.18
2019-05-23T17:58:58.569Z,70.10
2019-05-23T18:01:38.959Z,69.75
2019-05-23T18:04:18.079Z,69.14
2019-05-23T18:06:55.416Z,68.58
2019-05-23T18:09:33.975Z,69.17
2019-05-23T18:12:11.437Z,68.23
2019-05-23T18:14:49.033Z,67.83
2019-05-23T18:17:27.231Z,68.27
2019-05-23T18:20:09.776Z,67.76
2019-05-23T18:22:49.902Z,67.33
2019-05-23T18:25:28.614Z,67.35
2019-05-23T18:28:06.320Z,67.05
2019-05-23T18:30:58.194Z,66.69
2019-05-23T18:33:35.756Z,66.58
2019-05-23T18:36:13.630Z,65.70
2019-05-23T18:38:51.360Z,65.60
2019-05-23T18:41:30.017Z,66.07
2019-05-23T18:44:07.439Z,66.92
2019-05-23T18:46:50.673Z,66.87
2019-05-23T18:49:28.194Z,66.69
2019-05-23T18:52:07.736Z,67.19
2019-05-23T18:54:45.524Z,68.02
2019-05-23T18:57:24.180Z,67.94
2019-05-23T19:00:01.463Z,68.71
2019-05-23T19:02:41.328Z,68.06
2019-05-23T19:05:19.157Z,67.71
2019-05-23T19:07:58.045Z,68.37
2019-05-23T19:10:34.984Z,67.08
2019-05-23T19:13:12.967Z,66.85
2019-05-23T19:15:50.231Z,67.07
2019-05-23T19:18:30.379Z,68.27
2019-05-23T19:21:09.296Z,68.96
2019-05-23T19:23:49.266Z,68.92
2019-05-23T19:26:26.331Z,69.14
2019-05-23T19:29:03.758Z,69.25
2019-05-23T19:31:41.537Z,69.35
2019-05-23T19:34:20.279Z,69.21
2019-05-23T19:36:57.799Z,69.11
2019-05-23T19:39:40.499Z,69.55
2019-05-23T19:42:19.440Z,69.52
2019-05-23T19:44:58.015Z,69.10
2019-05-23T19:47:35.668Z,68.28
2019-05-23T19:50:13.324Z,67.38
2019-05-23T19:52:50.817Z,67.64
2019-05-23T19:55:31.553Z,67.65
2019-05-23T19:58:10.961Z,67.61
2019-05-23T20:00:50.491Z,67.27
2019-05-23T20:03:32.487Z,67.98
2019-05-23T20:06:09.590Z,67.82
2019-05-23T20:08:48.127Z,66.89
2019-05-23T20:11:25.526Z,67.04
2019-05-23T20:14:02.629Z,67.41
2019-05-23T20:16:40.979Z,67.26
2019-05-23T20:19:18.120Z,67.09
2019-05-23T20:21:57.235Z,67.51
2019-05-23T20:24:34.742Z,67.75
2019-05-23T20:27:14.536Z,67.27
2019-05-23T20:29:52.076Z,66.62
2019-05-23T20:32:29.501Z,67.05
2019-05-23T20:35:06.983Z,67.92
2019-05-23T20:37:46.360Z,67.65
2019-05-23T20:40:24.621Z,66.80
2019-05-23T20:43:02.713Z,67.08
2019-05-23T20:45:40.046Z,68.02
2019-05-23T20:48:18.801Z,69.39
2019-05-23T20:50:56.628Z,70.23
2019-05-23T20:53:34.601Z,70.93
2019-05-23T20:56:11.781Z,70.80
2019-05-23T20:58:50.884Z,70.98
2019-05-23T21:01:35.770Z,71.29
2019-05-23T21:04:13.481Z,71.63
2019-05-23T21:06:50.833Z,72.49
2019-05-23T21:09:28.484Z,72.81
2019-05-23T21:12:05.863Z,73.62
2019-05-23T21:14:43.253Z,73.05
2019-05-23T21:17:20.839Z,73.38
2019-05-23T21:20:04.782Z,73.39
2019-05-23T21:22:43.914Z,73.13
2019-05-23T21:25:21.687Z,73.99
2019-05-23T21:28:01.385Z,72.92
2019-05-23T21:30:42.637Z,72.21
2019-05-23T21:33:20.322Z,72.66
2019-05-23T21:35:58.434Z,72.29
2019-05-23T21:38:36.467Z,72.40
2019-05-23T21:41:15.037Z,72.22
2019-05-23T21:43:53.893Z,72.79
2019-05-23T21:46:31.693Z,73.13
2019-05-23T21:49:09.213Z,73.26
2019-05-23T21:51:47.323Z,73.67
2019-05-23T21:54:24.655Z,72.79
2019-05-23T21:57:03.117Z,71.49
2019-05-23T21:59:41.719Z,71.29
2019-05-23T22:02:37.288Z,71.48
2019-05-23T22:05:18.086Z,71.53
2019-05-23T22:07:56.220Z,71.36
2019-05-23T22:10:33.912Z,72.98
2019-05-23T22:13:11.803Z,72.35
2019-05-23T22:15:49.263Z,71.60
2019-05-23T22:18:27.765Z,72.52
2019-05-23T22:21:05.443Z,73.32
2019-05-23T22:23:44.939Z,73.26
2019-05-23T22:26:23.019Z,73.01
2019-05-23T22:29:00.773Z,73.32
2019-05-23T22:31:41.926Z,73.45
2019-05-23T22:34:36.786Z,73.02
2019-05-23T22:37:18.289Z,73.19
2019-05-23T22:39:56.360Z,72.84
2019-05-23T22:42:34.826Z,73.65
2019-05-23T22:45:17.005Z,73.65
2019-05-23T22:47:54.423Z,73.86
2019-05-23T22:50:32.084Z,74.69
2019-05-23T22:53:09.587Z,74.52
2019-05-23T22:55:47.506Z,69.43
2019-05-23T22:58:24.853Z,65.29
2019-05-23T23:01:02.509Z,68.19
2019-05-23T23:03:39.948Z,70.48
2019-05-23T23:06:20.186Z,69.16
2019-05-23T23:08:56.969Z,71.17
2019-05-23T23:11:35.052Z,72.56
2019-05-23T23:14:12.563Z,73.68
2019-05-23T23:16:52.345Z,73.89
2019-05-23T23:19:30.123Z,75.69
2019-05-23T23:22:07.536Z,74.72
2019-05-23T23:24:45.669Z,74.83
2019-05-23T23:27:23.702Z,76.49
2019-05-23T23:30:01.254Z,76.14
2019-05-23T23:32:39.034Z,75.88
2019-05-23T23:35:17.004Z,76.11
2019-05-23T23:37:56.911Z,76.26
2019-05-23T23:40:34.430Z,76.85
2019-05-23T23:43:14.856Z,77.71
2019-05-23T23:46:09.829Z,78.20
2019-05-23T23:49:07.584Z,78.82
2019-05-23T23:52:01.875Z,79.44
2019-05-23T23:54:56.967Z,79.49
2019-05-23T23:57:52.351Z,80.53
